Etusivu
METAR-TAF:

METAR-TAF

Lentoasemat :

Al-Ubayyid, Sudan

Leveyspiiri: 13-10N, Pituuspiiri: 030-14E, korkeus merenpinnasta: 574 m

Tämänhetkinen sää

Tämä raportti tehtiin 10 tuntia ja 23 minuuttia sitten, kello 11.00 UTC
Tuuli 6 kn pohjoisen/luoteesta
Lämpötila 30°C
Kosteus 13%
Ilmanpaine 1016 hPa
Näkyvyys 10 km tai enemmän
ei pilviä alle 1500 m:ssä eikä cumulonimbus-pilviä

METAR: HSOB 161100Z 33006KT CAVOK 30/M01 Q1016

Aika: 23:23 (21:23 UTC)

Sääennuste

Tämä raportti tehtiin 4 tuntia ja 23 minuuttia sitten, kello 17.00 UTC
Ennuste voimassa 16. päivästä klo 18 UTC - 17. päivään klo 24 UTC
Tuuli 10 kn pohjoisen/luoteesta puuskistuen 20 kn:hen
Näkyvyys 10 km tai enemmän
ei pilviä alle 1500 m:ssä eikä cumulonimbus-pilviä
Ajoittain
17. päivästä klo 05 UTC - 17. päivään klo 09 UTC
Näkyvyys: 6000 m

TAF: HSOB 161700Z 1618/1724 33010G20KT CAVOK TEMPO 1705/1709 6000 NSC

Säähavainnot ja -ennusteet yli 4000 lentoasemalta (METAR- ja TAF-raportit).

Käytössä olevat sääasemat on merkitty karttaan keltaisilla ja punaisilla pisteillä.

Aseta hiiri pisteen päälle nähdäksesi sääaseman nimen.

Klikkaa sitten nähdäksesi säähavainnot ja -ennusteet.

Kartan vaihtaminen: klikkaa mustalla rastilla varustettuja vihreitä pisteitä, niin voit zoomata sisään; viivalla varustettua vihreää pistettä, niin voit zoomata ulos tai vihreitä nuolia, niin pääset viereisille kartoille.


METAR-TAF: